sensor_id;sensor_type;location;lat;lon;timestamp;pressure;altitude;pressure_sealevel;temperature;humidity
31096;BME280;17749;51.962;8.560;2023-05-16T05:01:47;100193.22;;;9.00;100.00
31096;BME280;17749;51.962;8.560;2023-05-16T05:04:14;100202.75;;;9.06;100.00
31096;BME280;17749;51.962;8.560;2023-05-16T05:06:43;100201.16;;;9.02;100.00
31096;BME280;17749;51.962;8.560;2023-05-16T05:09:10;100209.16;;;9.00;100.00
31096;BME280;17749;51.962;8.560;2023-05-16T05:11:37;100204.91;;;8.95;100.00
31096;BME280;17749;51.962;8.560;2023-05-16T05:14:04;100213.69;;;8.97;100.00
31096;BME280;17749;51.962;8.560;2023-05-16T05:16:31;100217.19;;;8.99;100.00
31096;BME280;17749;51.962;8.560;2023-05-16T05:18:58;100218.25;;;8.93;100.00
31096;BME280;17749;51.962;8.560;2023-05-16T05:21:25;100224.53;;;8.91;100.00
31096;BME280;17749;51.962;8.560;2023-05-16T05:23:52;100225.44;;;8.90;100.00
31096;BME280;17749;51.962;8.560;2023-05-16T05:26:19;100219.69;;;8.75;100.00
31096;BME280;17749;51.962;8.560;2023-05-16T05:28:48;100216.19;;;8.73;100.00
31096;BME280;17749;51.962;8.560;2023-05-16T05:31:29;100239.06;;;8.77;100.00
31096;BME280;17749;51.962;8.560;2023-05-16T05:33:56;100236.50;;;8.76;100.00
31096;BME280;17749;51.962;8.560;2023-05-16T05:36:23;100240.94;;;8.75;100.00
31096;BME280;17749;51.962;8.560;2023-05-16T05:38:50;100244.38;;;8.77;100.00
31096;BME280;17749;51.962;8.560;2023-05-16T05:41:17;100237.25;;;8.80;100.00
31096;BME280;17749;51.962;8.560;2023-05-16T05:43:43;100239.00;;;8.81;100.00
31096;BME280;17749;51.962;8.560;2023-05-16T05:46:10;100247.72;;;8.86;100.00
31096;BME280;17749;51.962;8.560;2023-05-16T05:48:40;100245.06;;;8.86;100.00
31096;BME280;17749;51.962;8.560;2023-05-16T05:51:09;100252.06;;;8.88;100.00
31096;BME280;17749;51.962;8.560;2023-05-16T05:53:36;100246.69;;;8.90;100.00
31096;BME280;17749;51.962;8.560;2023-05-16T05:56:03;100247.50;;;8.92;100.00
31096;BME280;17749;51.962;8.560;2023-05-16T05:58:30;100252.72;;;8.95;100.00
31096;BME280;17749;51.962;8.560;2023-05-16T06:00:57;100263.78;;;9.09;100.00
31096;BME280;17749;51.962;8.560;2023-05-16T06:03:24;100255.41;;;9.21;100.00
31096;BME280;17749;51.962;8.560;2023-05-16T06:05:51;100263.00;;;9.34;100.00
31096;BME280;17749;51.962;8.560;2023-05-16T06:08:18;100262.69;;;9.43;100.00
31096;BME280;17749;51.962;8.560;2023-05-16T06:10:46;100255.75;;;9.39;100.00
31096;BME280;17749;51.962;8.560;2023-05-16T06:13:13;100259.84;;;9.49;100.00
31096;BME280;17749;51.962;8.560;2023-05-16T06:15:40;100268.31;;;9.60;100.00
31096;BME280;17749;51.962;8.560;2023-05-16T06:18:07;100272.19;;;9.77;100.00
31096;BME280;17749;51.962;8.560;2023-05-16T06:20:34;100277.50;;;10.03;100.00
31096;BME280;17749;51.962;8.560;2023-05-16T06:23:01;100271.22;;;10.31;100.00
31096;BME280;17749;51.962;8.560;2023-05-16T06:25:27;100283.53;;;10.59;100.00
31096;BME280;17749;51.962;8.560;2023-05-16T06:27:56;100281.59;;;10.86;100.00
31096;BME280;17749;51.962;8.560;2023-05-16T06:30:22;100288.84;;;11.06;100.00
31096;BME280;17749;51.962;8.560;2023-05-16T06:32:49;100294.59;;;11.17;100.00
31096;BME280;17749;51.962;8.560;2023-05-16T06:35:16;100287.16;;;11.25;100.00
31096;BME280;17749;51.962;8.560;2023-05-16T06:37:43;100292.25;;;11.31;100.00
31096;BME280;17749;51.962;8.560;2023-05-16T06:40:10;100285.00;;;11.35;100.00
31096;BME280;17749;51.962;8.560;2023-05-16T06:42:37;100295.47;;;11.39;100.00
31096;BME280;17749;51.962;8.560;2023-05-16T06:45:05;100302.06;;;11.53;100.00
31096;BME280;17749;51.962;8.560;2023-05-16T06:47:32;100296.38;;;11.60;100.00
31096;BME280;17749;51.962;8.560;2023-05-16T06:49:59;100296.25;;;11.85;100.00
31096;BME280;17749;51.962;8.560;2023-05-16T06:52:26;100307.34;;;11.97;100.00
31096;BME280;17749;51.962;8.560;2023-05-16T06:54:54;100298.56;;;11.95;100.00
31096;BME280;17749;51.962;8.560;2023-05-16T06:57:21;100299.34;;;12.17;100.00
31096;BME280;17749;51.962;8.560;2023-05-16T06:59:48;100305.34;;;12.43;100.00
31096;BME280;17749;51.962;8.560;2023-05-16T07:02:15;100304.47;;;12.63;100.00
31096;BME280;17749;51.962;8.560;2023-05-16T07:04:42;100298.63;;;12.74;100.00
31096;BME280;17749;51.962;8.560;2023-05-16T07:07:09;100301.31;;;12.74;100.00
31096;BME280;17749;51.962;8.560;2023-05-16T07:09:36;100306.13;;;12.65;100.00
31096;BME280;17749;51.962;8.560;2023-05-16T07:12:02;100300.88;;;12.83;100.00
31096;BME280;17749;51.962;8.560;2023-05-16T07:14:44;100308.88;;;12.83;100.00
31096;BME280;17749;51.962;8.560;2023-05-16T07:17:11;100301.91;;;13.18;100.00
31096;BME280;17749;51.962;8.560;2023-05-16T07:19:38;100303.56;;;13.40;100.00
31096;BME280;17749;51.962;8.560;2023-05-16T07:22:05;100312.50;;;13.57;100.00
31096;BME280;17749;51.962;8.560;2023-05-16T07:24:32;100313.78;;;13.68;100.00
31096;BME280;17749;51.962;8.560;2023-05-16T07:26:59;100315.13;;;13.40;100.00
31096;BME280;17749;51.962;8.560;2023-05-16T07:29:26;100312.81;;;13.13;100.00
31096;BME280;17749;51.962;8.560;2023-05-16T07:31:53;100312.31;;;12.86;100.00
31096;BME280;17749;51.962;8.560;2023-05-16T07:34:20;100320.22;;;12.69;100.00
31096;BME280;17749;51.962;8.560;2023-05-16T07:36:47;100312.06;;;12.91;100.00
31096;BME280;17749;51.962;8.560;2023-05-16T07:39:14;100320.16;;;13.46;100.00
31096;BME280;17749;51.962;8.560;2023-05-16T07:41:41;100317.59;;;13.98;100.00
31096;BME280;17749;51.962;8.560;2023-05-16T07:44:08;100304.34;;;14.47;100.00
31096;BME280;17749;51.962;8.560;2023-05-16T07:46:35;100307.44;;;14.57;100.00
31096;BME280;17749;51.962;8.560;2023-05-16T07:49:05;100310.72;;;14.45;100.00
31096;BME280;17749;51.962;8.560;2023-05-16T07:51:32;100303.00;;;14.56;100.00
31096;BME280;17749;51.962;8.560;2023-05-16T07:53:59;100315.91;;;14.48;100.00
31096;BME280;17749;51.962;8.560;2023-05-16T07:56:27;100322.78;;;14.36;100.00
31096;BME280;17749;51.962;8.560;2023-05-16T07:58:54;100315.38;;;13.89;100.00
31096;BME280;17749;51.962;8.560;2023-05-16T08:01:21;100324.06;;;13.58;100.00
31096;BME280;17749;51.962;8.560;2023-05-16T08:03:48;100317.88;;;13.57;100.00
31096;BME280;17749;51.962;8.560;2023-05-16T08:06:15;100321.91;;;14.01;100.00
31096;BME280;17749;51.962;8.560;2023-05-16T08:08:42;100319.63;;;14.45;100.00
31096;BME280;17749;51.962;8.560;2023-05-16T08:11:09;100319.75;;;14.77;100.00
31096;BME280;17749;51.962;8.560;2023-05-16T08:13:37;100322.31;;;15.12;100.00
31096;BME280;17749;51.962;8.560;2023-05-16T08:16:04;100319.09;;;15.53;97.50
31096;BME280;17749;51.962;8.560;2023-05-16T08:18:31;100325.28;;;15.71;94.45
31096;BME280;17749;51.962;8.560;2023-05-16T08:20:58;100325.19;;;15.72;94.20
31096;BME280;17749;51.962;8.560;2023-05-16T08:23:25;100325.25;;;15.55;95.06
31096;BME280;17749;51.962;8.560;2023-05-16T08:25:52;100325.25;;;15.23;97.23
31096;BME280;17749;51.962;8.560;2023-05-16T08:28:20;100316.09;;;15.43;97.41
31096;BME280;17749;51.962;8.560;2023-05-16T08:30:47;100324.31;;;15.88;93.97
31096;BME280;17749;51.962;8.560;2023-05-16T08:33:14;100330.25;;;16.23;87.83
31096;BME280;17749;51.962;8.560;2023-05-16T08:35:42;100331.75;;;16.13;88.29
31096;BME280;17749;51.962;8.560;2023-05-16T08:38:09;100322.47;;;15.88;86.53
31096;BME280;17749;51.962;8.560;2023-05-16T08:40:36;100325.59;;;15.96;86.27
31096;BME280;17749;51.962;8.560;2023-05-16T08:43:03;100320.47;;;15.92;86.22
31096;BME280;17749;51.962;8.560;2023-05-16T08:45:31;100320.84;;;15.86;87.15
31096;BME280;17749;51.962;8.560;2023-05-16T08:47:59;100320.94;;;16.14;86.02
31096;BME280;17749;51.962;8.560;2023-05-16T08:50:34;100325.84;;;16.22;84.74
31096;BME280;17749;51.962;8.560;2023-05-16T08:53:06;100320.56;;;16.20;82.64
31096;BME280;17749;51.962;8.560;2023-05-16T08:55:34;100327.31;;;15.66;82.66
31096;BME280;17749;51.962;8.560;2023-05-16T08:58:02;100328.63;;;15.90;83.45
31096;BME280;17749;51.962;8.560;2023-05-16T09:00:29;100328.28;;;16.11;80.28
31096;BME280;17749;51.962;8.560;2023-05-16T09:02:57;100321.47;;;16.05;79.40
31096;BME280;17749;51.962;8.560;2023-05-16T09:05:24;100319.94;;;16.01;78.87
31096;BME280;17749;51.962;8.560;2023-05-16T09:07:54;100325.72;;;16.09;79.44
31096;BME280;17749;51.962;8.560;2023-05-16T09:10:21;100320.41;;;16.38;79.58
31096;BME280;17749;51.962;8.560;2023-05-16T09:12:48;100318.66;;;16.37;79.57
31096;BME280;17749;51.962;8.560;2023-05-16T09:15:17;100323.00;;;16.39;76.18
31096;BME280;17749;51.962;8.560;2023-05-16T09:17:45;100315.44;;;16.46;77.47
31096;BME280;17749;51.962;8.560;2023-05-16T09:20:17;100320.88;;;16.30;76.11
31096;BME280;17749;51.962;8.560;2023-05-16T09:22:56;100321.75;;;16.45;76.98
31096;BME280;17749;51.962;8.560;2023-05-16T09:25:25;100326.91;;;16.19;77.40
31096;BME280;17749;51.962;8.560;2023-05-16T09:27:59;100318.97;;;16.02;79.60
31096;BME280;17749;51.962;8.560;2023-05-16T09:30:32;100319.81;;;15.88;79.30
31096;BME280;17749;51.962;8.560;2023-05-16T09:33:00;100313.72;;;15.85;80.65
31096;BME280;17749;51.962;8.560;2023-05-16T09:35:27;100322.06;;;16.10;80.05
31096;BME280;17749;51.962;8.560;2023-05-16T09:37:57;100318.66;;;16.23;78.55
31096;BME280;17749;51.962;8.560;2023-05-16T09:40:24;100319.38;;;16.40;79.74
31096;BME280;17749;51.962;8.560;2023-05-16T09:43:04;100320.03;;;16.30;78.34
31096;BME280;17749;51.962;8.560;2023-05-16T09:45:32;100320.34;;;16.09;77.58
31096;BME280;17749;51.962;8.560;2023-05-16T09:48:04;100325.31;;;16.01;78.55
31096;BME280;17749;51.962;8.560;2023-05-16T09:50:33;100323.75;;;15.97;78.64
31096;BME280;17749;51.962;8.560;2023-05-16T09:53:03;100335.47;;;15.96;78.08
31096;BME280;17749;51.962;8.560;2023-05-16T09:55:31;100324.53;;;15.99;76.45
31096;BME280;17749;51.962;8.560;2023-05-16T09:57:58;100318.34;;;15.83;75.91
31096;BME280;17749;51.962;8.560;2023-05-16T10:00:29;100325.25;;;15.87;78.62
31096;BME280;17749;51.962;8.560;2023-05-16T10:02:58;100330.63;;;15.87;79.39
31096;BME280;17749;51.962;8.560;2023-05-16T10:05:30;100337.88;;;15.85;79.89
31096;BME280;17749;51.962;8.560;2023-05-16T10:07:57;100331.28;;;16.06;79.89
31096;BME280;17749;51.962;8.560;2023-05-16T10:10:25;100332.44;;;16.16;79.97
31096;BME280;17749;51.962;8.560;2023-05-16T10:12:54;100324.81;;;16.25;79.70
31096;BME280;17749;51.962;8.560;2023-05-16T10:15:24;100326.66;;;16.38;81.09
31096;BME280;17749;51.962;8.560;2023-05-16T10:17:55;100319.38;;;16.40;81.03
31096;BME280;17749;51.962;8.560;2023-05-16T10:20:25;100325.59;;;16.41;79.43
31096;BME280;17749;51.962;8.560;2023-05-16T10:22:54;100314.13;;;16.53;79.93
31096;BME280;17749;51.962;8.560;2023-05-16T10:25:33;100315.25;;;16.49;76.03
31096;BME280;17749;51.962;8.560;2023-05-16T10:28:02;100316.28;;;16.61;74.59
31096;BME280;17749;51.962;8.560;2023-05-16T10:30:32;100318.16;;;16.75;75.10
31096;BME280;17749;51.962;8.560;2023-05-16T10:33:00;100310.69;;;16.80;75.80
31096;BME280;17749;51.962;8.560;2023-05-16T10:35:28;100311.63;;;16.64;76.06
31096;BME280;17749;51.962;8.560;2023-05-16T10:37:56;100310.84;;;16.77;74.18
31096;BME280;17749;51.962;8.560;2023-05-16T10:40:23;100310.25;;;16.57;74.36
31096;BME280;17749;51.962;8.560;2023-05-16T10:42:58;100311.00;;;16.45;72.87
31096;BME280;17749;51.962;8.560;2023-05-16T10:45:26;100315.00;;;16.24;73.79
31096;BME280;17749;51.962;8.560;2023-05-16T10:48:01;100312.81;;;16.30;75.14
31096;BME280;17749;51.962;8.560;2023-05-16T10:50:43;100297.97;;;16.53;75.66
31096;BME280;17749;51.962;8.560;2023-05-16T10:53:33;100295.09;;;16.56;75.48
31096;BME280;17749;51.962;8.560;2023-05-16T11:06:27;100310.59;;;16.81;70.62
31096;BME280;17749;51.962;8.560;2023-05-16T11:11:58;100322.72;;;16.44;71.60
31096;BME280;17749;51.962;8.560;2023-05-16T11:19:29;100324.63;;;16.42;70.90
31096;BME280;17749;51.962;8.560;2023-05-16T11:27:45;100319.28;;;16.56;70.15
31096;BME280;17749;51.962;8.560;2023-05-16T11:30:13;100314.47;;;16.47;70.71
31096;BME280;17749;51.962;8.560;2023-05-16T11:32:42;100315.06;;;16.67;70.87
31096;BME280;17749;51.962;8.560;2023-05-16T11:35:14;100311.66;;;16.93;69.48
31096;BME280;17749;51.962;8.560;2023-05-16T11:37:42;100314.50;;;17.04;69.15
31096;BME280;17749;51.962;8.560;2023-05-16T11:40:11;100314.63;;;17.03;69.26
31096;BME280;17749;51.962;8.560;2023-05-16T11:42:44;100317.47;;;17.00;70.79
31096;BME280;17749;51.962;8.560;2023-05-16T11:45:16;100323.81;;;16.84;71.81
31096;BME280;17749;51.962;8.560;2023-05-16T11:47:45;100324.03;;;16.81;71.03
31096;BME280;17749;51.962;8.560;2023-05-16T11:50:18;100328.53;;;16.67;71.26
31096;BME280;17749;51.962;8.560;2023-05-16T11:52:47;100334.25;;;16.60;72.65
31096;BME280;17749;51.962;8.560;2023-05-16T11:55:15;100331.28;;;16.65;72.01
31096;BME280;17749;51.962;8.560;2023-05-16T11:58:04;100332.53;;;16.59;73.96
31096;BME280;17749;51.962;8.560;2023-05-16T12:00:32;100330.97;;;16.55;72.34
31096;BME280;17749;51.962;8.560;2023-05-16T12:03:00;100327.16;;;16.59;73.84
31096;BME280;17749;51.962;8.560;2023-05-16T12:05:28;100322.91;;;16.55;74.85
31096;BME280;17749;51.962;8.560;2023-05-16T12:07:57;100327.38;;;16.26;74.06
31096;BME280;17749;51.962;8.560;2023-05-16T12:10:25;100326.91;;;16.19;76.22
31096;BME280;17749;51.962;8.560;2023-05-16T12:12:55;100325.56;;;16.27;76.96
31096;BME280;17749;51.962;8.560;2023-05-16T12:15:23;100328.19;;;16.42;75.50
31096;BME280;17749;51.962;8.560;2023-05-16T12:17:51;100322.53;;;16.47;75.66
31096;BME280;17749;51.962;8.560;2023-05-16T12:20:19;100313.41;;;16.50;73.24
31096;BME280;17749;51.962;8.560;2023-05-16T12:22:46;100316.88;;;16.52;74.86
31096;BME280;17749;51.962;8.560;2023-05-16T12:25:28;100310.25;;;16.43;73.66
31096;BME280;17749;51.962;8.560;2023-05-16T12:28:00;100326.00;;;16.35;72.53
31096;BME280;17749;51.962;8.560;2023-05-16T12:30:29;100318.97;;;16.32;71.41
31096;BME280;17749;51.962;8.560;2023-05-16T12:32:57;100324.03;;;16.37;72.06
31096;BME280;17749;51.962;8.560;2023-05-16T12:35:30;100314.28;;;16.50;71.17
31096;BME280;17749;51.962;8.560;2023-05-16T12:37:57;100312.75;;;16.46;71.29
31096;BME280;17749;51.962;8.560;2023-05-16T12:40:28;100305.28;;;16.51;71.05
31096;BME280;17749;51.962;8.560;2023-05-16T12:42:57;100314.50;;;16.76;69.68
31096;BME280;17749;51.962;8.560;2023-05-16T12:45:27;100312.00;;;16.87;69.11
31096;BME280;17749;51.962;8.560;2023-05-16T12:47:55;100317.69;;;16.97;68.50
31096;BME280;17749;51.962;8.560;2023-05-16T12:50:25;100320.78;;;16.91;67.80
31096;BME280;17749;51.962;8.560;2023-05-16T12:52:53;100321.97;;;16.71;66.98
31096;BME280;17749;51.962;8.560;2023-05-16T12:55:21;100330.25;;;16.68;66.26
31096;BME280;17749;51.962;8.560;2023-05-16T12:57:49;100326.19;;;16.60;68.51
31096;BME280;17749;51.962;8.560;2023-05-16T13:00:18;100327.44;;;16.55;65.91
31096;BME280;17749;51.962;8.560;2023-05-16T13:02:46;100326.38;;;16.57;65.06
31096;BME280;17749;51.962;8.560;2023-05-16T13:05:15;100327.56;;;16.68;66.10
31096;BME280;17749;51.962;8.560;2023-05-16T13:07:43;100326.19;;;16.60;65.13
31096;BME280;17749;51.962;8.560;2023-05-16T13:10:11;100323.13;;;16.52;65.84
31096;BME280;17749;51.962;8.560;2023-05-16T13:12:39;100321.59;;;16.48;64.42
31096;BME280;17749;51.962;8.560;2023-05-16T13:15:07;100330.19;;;16.39;64.96
31096;BME280;17749;51.962;8.560;2023-05-16T13:17:36;100328.19;;;16.42;66.24
31096;BME280;17749;51.962;8.560;2023-05-16T13:20:04;100327.63;;;16.52;66.85
31096;BME280;17749;51.962;8.560;2023-05-16T13:22:35;100328.03;;;16.46;66.20
31096;BME280;17749;51.962;8.560;2023-05-16T13:25:03;100335.56;;;16.39;67.09
31096;BME280;17749;51.962;8.560;2023-05-16T13:27:32;100331.81;;;16.27;66.50
31096;BME280;17749;51.962;8.560;2023-05-16T13:30:00;100330.19;;;16.25;67.15
31096;BME280;17749;51.962;8.560;2023-05-16T13:32:27;100315.13;;;16.22;65.66
31096;BME280;17749;51.962;8.560;2023-05-16T13:34:54;100325.06;;;16.20;67.11
31096;BME280;17749;51.962;8.560;2023-05-16T13:37:20;100327.63;;;16.07;66.85
31096;BME280;17749;51.962;8.560;2023-05-16T13:39:50;100325.72;;;16.09;67.51
31096;BME280;17749;51.962;8.560;2023-05-16T13:42:18;100327.63;;;16.07;65.96
31096;BME280;17749;51.962;8.560;2023-05-16T13:44:45;100333.72;;;15.95;62.99
31096;BME280;17749;51.962;8.560;2023-05-16T13:47:12;100326.47;;;15.81;64.05
31096;BME280;17749;51.962;8.560;2023-05-16T13:49:39;100329.59;;;15.73;64.68
31096;BME280;17749;51.962;8.560;2023-05-16T13:52:06;100332.53;;;15.85;65.30
31096;BME280;17749;51.962;8.560;2023-05-16T13:54:33;100337.56;;;15.91;65.32
31096;BME280;17749;51.962;8.560;2023-05-16T13:57:00;100333.22;;;15.88;64.98
31096;BME280;17749;51.962;8.560;2023-05-16T13:59:28;100337.03;;;15.84;64.38
31096;BME280;17749;51.962;8.560;2023-05-16T14:02:15;100342.94;;;15.75;65.28
31096;BME280;17749;51.962;8.560;2023-05-16T14:04:42;100340.84;;;15.64;65.19
31096;BME280;17749;51.962;8.560;2023-05-16T14:07:09;100348.13;;;15.46;64.79
31096;BME280;17749;51.962;8.560;2023-05-16T14:09:36;100348.13;;;15.46;65.89
31096;BME280;17749;51.962;8.560;2023-05-16T14:12:05;100356.06;;;15.48;65.76
31096;BME280;17749;51.962;8.560;2023-05-16T14:14:33;100352.78;;;15.43;65.30
31096;BME280;17749;51.962;8.560;2023-05-16T14:17:00;100350.72;;;15.48;66.74
31096;BME280;17749;51.962;8.560;2023-05-16T14:19:27;100353.22;;;15.35;67.25
31096;BME280;17749;51.962;8.560;2023-05-16T14:21:55;100360.75;;;15.44;67.71
31096;BME280;17749;51.962;8.560;2023-05-16T14:24:22;100359.91;;;15.44;68.08
31096;BME280;17749;51.962;8.560;2023-05-16T14:26:49;100364.31;;;15.45;69.38
31096;BME280;17749;51.962;8.560;2023-05-16T14:29:23;100356.25;;;15.45;70.09
31096;BME280;17749;51.962;8.560;2023-05-16T14:31:51;100359.38;;;15.53;69.76
31096;BME280;17749;51.962;8.560;2023-05-16T14:34:18;100361.28;;;15.67;70.73
31096;BME280;17749;51.962;8.560;2023-05-16T14:36:45;100365.28;;;15.75;70.32
31096;BME280;17749;51.962;8.560;2023-05-16T14:39:12;100362.50;;;15.93;70.27
31096;BME280;17749;51.962;8.560;2023-05-16T14:41:40;100369.75;;;16.07;68.35
31096;BME280;17749;51.962;8.560;2023-05-16T14:44:06;100361.34;;;15.97;67.32
31096;BME280;17749;51.962;8.560;2023-05-16T14:46:34;100371.88;;;15.86;66.64
31096;BME280;17749;51.962;8.560;2023-05-16T14:49:00;100372.09;;;15.65;66.11
31096;BME280;17749;51.962;8.560;2023-05-16T14:51:28;100371.84;;;15.54;68.81
31096;BME280;17749;51.962;8.560;2023-05-16T14:53:55;100384.47;;;15.36;69.99
31096;BME280;17749;51.962;8.560;2023-05-16T14:56:22;100373.03;;;15.32;70.32
31096;BME280;17749;51.962;8.560;2023-05-16T14:58:52;100389.41;;;15.28;70.96
31096;BME280;17749;51.962;8.560;2023-05-16T15:01:19;100390.28;;;14.95;72.34
31096;BME280;17749;51.962;8.560;2023-05-16T15:03:47;100394.31;;;14.86;74.77
31096;BME280;17749;51.962;8.560;2023-05-16T15:06:23;100393.91;;;14.94;75.71
31096;BME280;17749;51.962;8.560;2023-05-16T15:08:50;100392.56;;;15.03;74.99
31096;BME280;17749;51.962;8.560;2023-05-16T15:11:17;100392.38;;;15.06;76.13
31096;BME280;17749;51.962;8.560;2023-05-16T15:13:44;100402.94;;;15.09;76.49
31096;BME280;17749;51.962;8.560;2023-05-16T15:16:11;100391.91;;;15.15;76.14
31096;BME280;17749;51.962;8.560;2023-05-16T15:18:38;100393.63;;;15.16;75.81
31096;BME280;17749;51.962;8.560;2023-05-16T15:21:06;100399.69;;;15.20;73.65
31096;BME280;17749;51.962;8.560;2023-05-16T15:23:34;100404.84;;;15.07;73.37
31096;BME280;17749;51.962;8.560;2023-05-16T15:26:02;100405.16;;;15.01;73.67
31096;BME280;17749;51.962;8.560;2023-05-16T15:28:29;100408.84;;;14.82;73.34
31096;BME280;17749;51.962;8.560;2023-05-16T15:30:56;100399.41;;;14.75;75.01
31096;BME280;17749;51.962;8.560;2023-05-16T15:33:23;100404.91;;;14.72;73.61
31096;BME280;17749;51.962;8.560;2023-05-16T15:35:50;100402.09;;;14.58;73.58
31096;BME280;17749;51.962;8.560;2023-05-16T15:38:17;100409.63;;;14.50;75.42
31096;BME280;17749;51.962;8.560;2023-05-16T15:40:44;100411.69;;;14.44;75.14
31096;BME280;17749;51.962;8.560;2023-05-16T15:43:12;100410.97;;;14.41;76.72
31096;BME280;17749;51.962;8.560;2023-05-16T15:45:39;100405.84;;;14.36;77.00
31096;BME280;17749;51.962;8.560;2023-05-16T15:48:09;100414.91;;;14.34;76.80
31096;BME280;17749;51.962;8.560;2023-05-16T15:50:36;100411.44;;;14.32;76.61
31096;BME280;17749;51.962;8.560;2023-05-16T15:53:03;100414.69;;;14.38;76.91
31096;BME280;17749;51.962;8.560;2023-05-16T15:55:30;100420.50;;;14.46;77.24
31096;BME280;17749;51.962;8.560;2023-05-16T15:57:57;100417.81;;;14.46;75.98
31096;BME280;17749;51.962;8.560;2023-05-16T16:00:25;100422.38;;;14.44;75.94
31096;BME280;17749;51.962;8.560;2023-05-16T16:02:52;100407.50;;;14.39;77.03
31096;BME280;17749;51.962;8.560;2023-05-16T16:05:19;100408.69;;;14.33;76.15
31096;BME280;17749;51.962;8.560;2023-05-16T16:07:46;100406.00;;;14.33;75.77
31096;BME280;17749;51.962;8.560;2023-05-16T16:10:13;100408.69;;;14.33;75.49
31096;BME280;17749;51.962;8.560;2023-05-16T16:12:40;100407.72;;;14.34;76.00
31096;BME280;17749;51.962;8.560;2023-05-16T16:15:09;100413.03;;;14.36;74.96
31096;BME280;17749;51.962;8.560;2023-05-16T16:17:35;100413.56;;;14.42;75.89
31096;BME280;17749;51.962;8.560;2023-05-16T16:20:02;100415.00;;;14.50;75.46
31096;BME280;17749;51.962;8.560;2023-05-16T16:22:29;100411.09;;;14.57;75.19
31096;BME280;17749;51.962;8.560;2023-05-16T16:24:56;100403.97;;;14.56;75.42
31096;BME280;17749;51.962;8.560;2023-05-16T16:27:23;100411.84;;;14.59;75.37
31096;BME280;17749;51.962;8.560;2023-05-16T16:29:50;100411.56;;;14.65;75.77
31096;BME280;17749;51.962;8.560;2023-05-16T16:32:20;100414.94;;;14.68;75.83
31096;BME280;17749;51.962;8.560;2023-05-16T16:34:47;100411.38;;;14.68;75.89
31096;BME280;17749;51.962;8.560;2023-05-16T16:37:15;100409.03;;;14.62;75.79
31096;BME280;17749;51.962;8.560;2023-05-16T16:39:42;100411.72;;;14.62;76.89
31096;BME280;17749;51.962;8.560;2023-05-16T16:42:09;100417.38;;;14.56;76.11
31096;BME280;17749;51.962;8.560;2023-05-16T16:44:36;100420.22;;;14.53;76.78
31096;BME280;17749;51.962;8.560;2023-05-16T16:47:03;100423.19;;;14.46;76.63
31096;BME280;17749;51.962;8.560;2023-05-16T16:49:30;100428.06;;;14.38;77.45
31096;BME280;17749;51.962;8.560;2023-05-16T16:51:57;100433.72;;;14.32;77.42
31096;BME280;17749;51.962;8.560;2023-05-16T16:54:24;100427.81;;;14.25;77.34
31096;BME280;17749;51.962;8.560;2023-05-16T16:56:51;100432.44;;;14.22;77.99
31096;BME280;17749;51.962;8.560;2023-05-16T16:59:18;100442.38;;;14.20;78.89
31096;BME280;17749;51.962;8.560;2023-05-16T17:01:45;100434.81;;;14.11;77.65
31096;BME280;17749;51.962;8.560;2023-05-16T17:04:12;100438.72;;;14.03;78.06
31096;BME280;17749;51.962;8.560;2023-05-16T17:06:39;100440.75;;;13.98;78.87
31096;BME280;17749;51.962;8.560;2023-05-16T17:09:06;100447.84;;;13.99;78.99
31096;BME280;17749;51.962;8.560;2023-05-16T17:11:39;100445.72;;;13.89;79.32
31096;BME280;17749;51.962;8.560;2023-05-16T17:14:07;100446.28;;;13.76;78.30
31096;BME280;17749;51.962;8.560;2023-05-16T17:16:37;100447.16;;;13.77;79.97
31096;BME280;17749;51.962;8.560;2023-05-16T17:19:07;100456.13;;;13.76;80.33
31096;BME280;17749;51.962;8.560;2023-05-16T17:21:34;100451.78;;;13.73;79.65
31096;BME280;17749;51.962;8.560;2023-05-16T17:24:02;100462.41;;;13.75;79.98
31096;BME280;17749;51.962;8.560;2023-05-16T17:26:30;100467.03;;;13.71;79.48
31096;BME280;17749;51.962;8.560;2023-05-16T17:28:57;100463.78;;;13.65;81.13
31096;BME280;17749;51.962;8.560;2023-05-16T17:31:26;100467.63;;;13.59;81.95
31096;BME280;17749;51.962;8.560;2023-05-16T17:33:53;100461.59;;;13.54;81.75
31096;BME280;17749;51.962;8.560;2023-05-16T17:36:20;100469.72;;;13.52;82.95
31096;BME280;17749;51.962;8.560;2023-05-16T17:38:47;100469.72;;;13.52;83.89
31096;BME280;17749;51.962;8.560;2023-05-16T17:41:14;100469.72;;;13.52;84.92
31096;BME280;17749;51.962;8.560;2023-05-16T17:43:42;100478.66;;;13.51;83.89
31096;BME280;17749;51.962;8.560;2023-05-16T17:46:11;100477.50;;;13.38;83.42
31096;BME280;17749;51.962;8.560;2023-05-16T17:48:38;100483.16;;;13.32;85.90
31096;BME280;17749;51.962;8.560;2023-05-16T17:51:05;100490.38;;;13.30;87.49
31096;BME280;17749;51.962;8.560;2023-05-16T17:53:32;100486.78;;;13.31;88.29
31096;BME280;17749;51.962;8.560;2023-05-16T17:55:59;100481.53;;;13.28;89.19
31096;BME280;17749;51.962;8.560;2023-05-16T17:58:26;100479.91;;;13.24;90.21
31096;BME280;17749;51.962;8.560;2023-05-16T18:00:54;100489.28;;;13.13;89.67
31096;BME280;17749;51.962;8.560;2023-05-16T18:03:21;100484.47;;;13.01;88.92
31096;BME280;17749;51.962;8.560;2023-05-16T18:05:48;100484.91;;;12.92;89.06
31096;BME280;17749;51.962;8.560;2023-05-16T18:08:20;100493.97;;;12.88;91.10
31096;BME280;17749;51.962;8.560;2023-05-16T18:10:47;100495.06;;;12.84;93.10
31096;BME280;17749;51.962;8.560;2023-05-16T18:13:18;100494.16;;;12.83;95.76
31096;BME280;17749;51.962;8.560;2023-05-16T18:15:46;100499.44;;;12.85;97.73
31096;BME280;17749;51.962;8.560;2023-05-16T18:18:13;100505.06;;;12.79;98.72